| Date | Time | Temp. (oF) | Dew Point (oF) | Rel. Hum. (%) | Press. (in.) | Wind Dir. | Wind Speed (mph) | Hourly Rainfall (in.) |
|
|---|---|---|---|---|---|---|---|---|---|
| 1 | 12/20 | 00:00 | 22 | 22 | 100 | 29.70 | NNW | 9 | 0.00 |
| 2 | 12/19 | 23:00 | 22 | 22 | 100 | 29.70 | NNW | 7 | 0.02 |
| 3 | 12/19 | 22:00 | 22 | 22 | 100 | 29.69 | N | 10 | 0.02 |
| 4 | 12/19 | 21:00 | 24 | 23 | 100 | 29.69 | N | 7 | 0.04 |
| 5 | 12/19 | 20:00 | 24 | 23 | 100 | 29.69 | NNW | 4 | 0.04 |
| 6 | 12/19 | 19:00 | 24 | 23 | 100 | 29.69 | N | 7 | 0.07 |
| 7 | 12/19 | 18:00 | 25 | 24 | 100 | 29.68 | N | 6 | 0.10 |
| 8 | 12/19 | 17:00 | 24 | 23 | 100 | 29.66 | NNW | 5 | 0.09 |
| 9 | 12/19 | 16:00 | 23 | 23 | 100 | 29.65 | N | 4 | 0.09 |
| 10 | 12/19 | 15:00 | 22 | 22 | 100 | 29.65 | NE | 7 | 0.09 |
| 11 | 12/19 | 14:00 | 21 | 21 | 100 | 29.65 | N | 5 | 0.08 |
| 12 | 12/19 | 13:00 | 20 | 19 | 100 | 29.67 | NNE | 7 | 0.07 |
| 13 | 12/19 | 12:00 | 20 | 19 | 100 | 29.67 | N | 5 | 0.08 |
| 14 | 12/19 | 11:00 | 20 | 19 | 100 | 29.73 | NNE | 6 | 0.06 |
| 15 | 12/19 | 10:00 | 20 | 19 | 100 | 29.75 | NE | 5 | 0.06 |
| 16 | 12/19 | 09:00 | 21 | 21 | 100 | 29.74 | NNE | 11 | 0.03 |
| 17 | 12/19 | 08:00 | 21 | 21 | 100 | 29.77 | NE | 5 | 0.05 |
| 18 | 12/19 | 07:00 | 22 | 22 | 100 | 29.77 | NE | 7 | 0.06 |
| 19 | 12/19 | 06:00 | 22 | 22 | 100 | 29.83 | ENE | 7 | 0.03 |
| 20 | 12/19 | 05:00 | 23 | 22 | 97 | 29.82 | ENE | 8 | 0.00 |
| 21 | 12/19 | 04:00 | 24 | 21 | 89 | 29.84 | ENE | 7 | 0.00 |
| 22 | 12/19 | 03:00 | 26 | 21 | 84 | 29.88 | ENE | 6 | 0.00 |
| 23 | 12/19 | 02:00 | 25 | 21 | 85 | 29.93 | E | 7 | 0.00 |
| 24 | 12/19 | 01:00 | 29 | 15 | 57 | 29.96 | E | 5 | 0.00 |